KABY

Southwest Georgia Regional Airport

Albany, Georgia, USA
METAR KABY 211453Z 05012KT 10SM BKN045 20/08 A3029 RMK AO2 SLP255 T02000083 51001
Observed Flight Rules
Apr-21 @ 14:53 UTC (45 minutes ago) Visual Flight Rules
Wind Visibility Clouds
50° at 12 knots 10 miles
  • Broken at 4,500' AGL
Temperatures Readings
Current 20°C / 68°F
Dewpoint 8°C / 46°F
Humidity 46%
Altimeter 30.29" Hg
Pressure 1025.5 hPa
Elevation 58
METAR KABY 211453Z 05012KT 10SM BKN045 20/08 A3029 RMK AO2 SLP255 T02000083 51001
Observed Flight Rules
Apr-21 @ 14:53 UTC
(45 minutes ago)
VFR
Wind Visibility
50° at 12 knots 10 miles
Clouds
  • Broken at 4,500' AGL
Temperature Dewpoint
20°C / 68°F 8°C / 46°F
Humidity Altimeter Pressure
46% 30.29" Hg 1025.5 hPa